CYHK

Gjoa Haven Airport

Gjoa Haven, Canada
METAR CYHK 140000Z 07018KT 2SM -SN BLSN BKN009 OVC017 M13/M14 A2941 RMK ST5SC3 SLP967
Observed Flight Rules
Dec-14 @ 00:00 UTC (53 minutes ago) Instrument Flight Rules
Wind Visibility Clouds Conditions
70° at 18 knots 2 miles
  • Broken at 900' AGL
  • Overcast at 1,700' AGL
  • Light Snow
  • Blowing
  • Snow
Temperatures Readings
Current -13°C / 9°F
Dewpoint -14°C / 7°F
Humidity 92%
Altimeter 29.41" Hg
Pressure 996.7 hPa
Elevation 46
METAR CYHK 140000Z 07018KT 2SM -SN BLSN BKN009 OVC017 M13/M14 A2941 RMK ST5SC3 SLP967
Observed Flight Rules
Dec-14 @ 00:00 UTC
(53 minutes ago)
IFR
Wind Visibility
70° at 18 knots 2 miles
Clouds
  • Broken at 900' AGL
  • Overcast at 1,700' AGL
Conditions
  • Light Snow
  • Blowing
  • Snow
Temperature Dewpoint
-13°C / 9°F -14°C / 7°F
Humidity Altimeter Pressure
92% 29.41" Hg 996.7 hPa